createdAt,value
2019-05-05T00:00:14.370Z,6.40
2019-05-05T00:03:20.047Z,6.50
2019-05-05T00:05:54.763Z,6.30
2019-05-05T00:08:25.544Z,6.30
2019-05-05T00:11:05.615Z,6.20
2019-05-05T00:13:47.820Z,6.20
2019-05-05T00:16:32.340Z,6.20
2019-05-05T00:19:04.799Z,6.10
2019-05-05T00:21:36.305Z,6.00
2019-05-05T00:24:07.431Z,6.00
2019-05-05T00:26:37.925Z,5.90
2019-05-05T00:29:08.489Z,5.90
2019-05-05T00:31:39.258Z,5.70
2019-05-05T00:34:09.883Z,5.70
2019-05-05T00:36:40.665Z,5.70
2019-05-05T00:39:11.614Z,5.70
2019-05-05T00:41:42.445Z,5.70
2019-05-05T00:44:15.171Z,5.60
2019-05-05T00:47:05.296Z,5.60
2019-05-05T00:49:46.344Z,5.40
2019-05-05T00:52:09.997Z,5.30
2019-05-05T00:54:40.772Z,5.30
2019-05-05T00:57:11.475Z,5.20
2019-05-05T00:59:42.472Z,5.20
2019-05-05T01:02:34.540Z,5.10
2019-05-05T01:05:25.319Z,5.00
2019-05-05T01:07:56.510Z,4.90
2019-05-05T01:10:29.258Z,4.80
2019-05-05T01:12:59.972Z,4.70
2019-05-05T01:15:30.823Z,4.60
2019-05-05T01:18:04.584Z,4.50
2019-05-05T01:20:34.939Z,4.50
2019-05-05T01:23:06.810Z,4.40
2019-05-05T01:25:37.841Z,4.40
2019-05-05T01:28:08.983Z,4.30
2019-05-05T01:30:41.979Z,4.20
2019-05-05T01:33:36.878Z,4.20
2019-05-05T01:36:08.419Z,4.10
2019-05-05T01:38:58.009Z,4.10
2019-05-05T01:41:34.819Z,4.10
2019-05-05T01:44:06.039Z,4.10
2019-05-05T01:46:39.493Z,4.10
2019-05-05T01:49:11.165Z,4.20
2019-05-05T01:51:41.826Z,4.10
2019-05-05T01:54:14.506Z,4.10
2019-05-05T01:56:48.398Z,4.10
2019-05-05T01:59:19.333Z,4.00
2019-05-05T02:01:49.816Z,4.10
2019-05-05T02:04:20.611Z,4.10
2019-05-05T02:06:51.314Z,4.10
2019-05-05T02:09:24.929Z,4.10
2019-05-05T02:11:56.789Z,4.10
2019-05-05T02:14:27.488Z,4.10
2019-05-05T02:17:01.117Z,4.10
2019-05-05T02:19:31.800Z,4.10
2019-05-05T02:22:02.298Z,4.10
2019-05-05T02:24:34.766Z,4.00
2019-05-05T02:27:05.791Z,4.10
2019-05-05T02:29:44.656Z,4.10
2019-05-05T02:32:26.697Z,4.00
2019-05-05T02:35:02.679Z,4.00
2019-05-05T02:37:35.572Z,4.00
2019-05-05T02:40:07.506Z,4.10
2019-05-05T02:42:39.318Z,4.10
2019-05-05T02:45:15.439Z,4.10
2019-05-05T02:48:05.949Z,4.10
2019-05-05T02:51:00.722Z,4.20
2019-05-05T02:53:29.643Z,4.10
2019-05-05T02:56:05.487Z,4.10
2019-05-05T02:58:39.167Z,4.10
2019-05-05T03:01:28.939Z,4.00
2019-05-05T03:04:03.617Z,3.90
2019-05-05T03:06:34.272Z,3.90
2019-05-05T03:09:06.455Z,4.00
2019-05-05T03:11:37.837Z,4.00
2019-05-05T03:14:10.681Z,4.10
2019-05-05T03:16:43.513Z,4.20
2019-05-05T03:19:14.351Z,4.20
2019-05-05T03:21:45.043Z,4.20
2019-05-05T03:24:15.846Z,4.10
2019-05-05T03:26:46.232Z,4.10
2019-05-05T03:29:20.229Z,4.10
2019-05-05T03:31:51.887Z,4.10
2019-05-05T03:34:24.011Z,4.10
2019-05-05T03:36:54.446Z,4.10
2019-05-05T03:39:27.982Z,4.10
2019-05-05T03:42:24.505Z,4.20
2019-05-05T03:45:08.268Z,4.20
2019-05-05T03:47:39.182Z,4.30
2019-05-05T03:50:10.114Z,4.40
2019-05-05T03:52:43.349Z,4.50
2019-05-05T03:55:14.712Z,4.50
2019-05-05T03:57:45.648Z,4.50
2019-05-05T04:00:24.771Z,4.40
2019-05-05T04:03:00.552Z,4.40
2019-05-05T04:05:38.561Z,4.40
2019-05-05T04:08:10.789Z,4.40
2019-05-05T04:10:45.562Z,4.30
2019-05-05T04:13:16.980Z,4.40
2019-05-05T04:16:06.711Z,4.40
2019-05-05T04:18:43.967Z,4.40
2019-05-05T04:21:14.828Z,4.40
2019-05-05T04:23:45.728Z,4.40
2019-05-05T04:26:16.556Z,4.40
2019-05-05T04:28:47.866Z,4.40
2019-05-05T04:31:18.585Z,4.30
2019-05-05T04:33:49.681Z,4.40
2019-05-05T04:36:23.031Z,4.40
2019-05-05T04:38:54.662Z,4.40
2019-05-05T04:41:25.627Z,4.50
2019-05-05T04:43:56.624Z,4.40
2019-05-05T04:46:27.883Z,4.50
2019-05-05T04:49:18.024Z,4.50
2019-05-05T04:51:50.585Z,4.50
2019-05-05T04:54:25.964Z,4.50
2019-05-05T04:56:58.072Z,4.40
2019-05-05T04:59:28.880Z,4.40
2019-05-05T05:02:03.998Z,4.50
2019-05-05T05:04:53.595Z,4.50
2019-05-05T05:07:24.354Z,4.50
2019-05-05T05:09:55.206Z,4.60
2019-05-05T05:12:26.022Z,4.60
2019-05-05T05:14:57.070Z,4.80
2019-05-05T05:17:34.698Z,4.80
2019-05-05T05:20:06.087Z,4.90
2019-05-05T05:22:36.749Z,5.00
2019-05-05T05:25:08.615Z,5.10
2019-05-05T05:27:39.899Z,5.20
2019-05-05T05:30:13.563Z,5.50
2019-05-05T05:32:44.560Z,5.80
2019-05-05T05:35:15.986Z,6.00
2019-05-05T05:37:46.743Z,6.10
2019-05-05T05:40:44.296Z,6.30
2019-05-05T05:43:19.892Z,6.50
2019-05-05T05:46:00.553Z,6.80
2019-05-05T05:48:50.166Z,6.90
2019-05-05T05:51:23.810Z,7.00
2019-05-05T05:53:54.872Z,7.10
2019-05-05T05:56:25.876Z,7.10
2019-05-05T05:58:56.590Z,7.20
2019-05-05T06:01:27.504Z,7.30
2019-05-05T06:03:58.302Z,7.50
2019-05-05T06:06:29.120Z,7.60
2019-05-05T06:08:59.997Z,7.50
2019-05-05T06:11:30.844Z,7.50
2019-05-05T06:14:01.341Z,7.60
2019-05-05T06:16:33.981Z,7.80
2019-05-05T06:19:04.770Z,7.90
2019-05-05T06:21:37.154Z,7.90
2019-05-05T06:24:07.758Z,7.90
2019-05-05T06:26:38.774Z,8.20
2019-05-05T06:29:10.048Z,8.40
2019-05-05T06:31:41.358Z,8.90
2019-05-05T06:34:13.952Z,9.10
2019-05-05T06:36:44.660Z,9.20
2019-05-05T06:39:15.059Z,9.30
2019-05-05T06:42:04.465Z,9.60
2019-05-05T06:44:54.031Z,9.80
2019-05-05T06:47:28.155Z,10.10
2019-05-05T06:49:58.855Z,10.10
2019-05-05T06:52:41.945Z,10.30
2019-05-05T06:55:03.618Z,10.70
2019-05-05T06:57:37.435Z,10.70
2019-05-05T07:00:08.262Z,10.90
2019-05-05T07:02:38.959Z,10.90
2019-05-05T07:05:09.759Z,10.70
2019-05-05T07:07:40.244Z,10.90
2019-05-05T07:10:11.214Z,11.00
2019-05-05T07:12:43.807Z,10.90
2019-05-05T07:15:16.604Z,11.10
2019-05-05T07:17:47.239Z,11.10
2019-05-05T07:20:17.876Z,11.20
2019-05-05T07:22:58.676Z,11.20
2019-05-05T07:25:20.573Z,11.40
2019-05-05T07:27:51.269Z,11.70
2019-05-05T07:30:24.190Z,11.90
2019-05-05T07:32:54.273Z,12.00
2019-05-05T07:35:55.334Z,12.20
2019-05-05T07:38:17.882Z,12.40
2019-05-05T07:40:48.696Z,12.40
2019-05-05T07:43:19.554Z,12.80
2019-05-05T07:45:50.279Z,12.90
2019-05-05T07:48:21.623Z,13.10
2019-05-05T07:51:02.118Z,13.40
2019-05-05T07:53:25.445Z,13.50
2019-05-05T07:55:56.078Z,13.60
2019-05-05T07:58:26.546Z,13.80
2019-05-05T08:00:57.265Z,13.50
2019-05-05T08:03:28.103Z,13.70
2019-05-05T08:05:58.877Z,13.90
2019-05-05T08:08:29.483Z,13.80
2019-05-05T08:11:00.282Z,14.20
2019-05-05T08:13:33.501Z,14.40
2019-05-05T08:16:05.491Z,14.40
2019-05-05T08:18:54.357Z,14.50
2019-05-05T08:21:25.740Z,14.60
2019-05-05T08:24:24.436Z,14.20
2019-05-05T08:27:14.436Z,14.10
2019-05-05T08:29:49.720Z,14.40
2019-05-05T08:32:35.015Z,14.50
2019-05-05T08:35:04.742Z,14.10
2019-05-05T08:37:35.478Z,14.50
2019-05-05T08:40:07.144Z,14.20
2019-05-05T08:42:37.798Z,14.20
2019-05-05T08:45:11.038Z,14.20
2019-05-05T08:47:43.533Z,14.30
2019-05-05T08:50:14.161Z,14.60
2019-05-05T08:52:45.147Z,14.20
2019-05-05T08:55:16.126Z,14.30
2019-05-05T08:57:46.699Z,14.20
2019-05-05T09:00:18.899Z,14.20
2019-05-05T09:02:49.529Z,13.70
2019-05-05T09:05:20.298Z,14.00
2019-05-05T09:07:50.781Z,13.50
2019-05-05T09:10:23.553Z,13.70
2019-05-05T09:12:54.374Z,13.60
2019-05-05T09:15:25.449Z,13.60
2019-05-05T09:17:56.137Z,13.70
2019-05-05T09:20:26.715Z,13.90
2019-05-05T09:22:57.556Z,14.20
2019-05-05T09:25:41.379Z,14.10
2019-05-05T09:28:34.147Z,14.40
2019-05-05T09:31:05.265Z,13.70
2019-05-05T09:33:36.184Z,13.40
2019-05-05T09:36:06.724Z,13.60
2019-05-05T09:38:37.615Z,13.90
2019-05-05T09:41:08.302Z,13.20
2019-05-05T09:43:39.084Z,13.40
2019-05-05T09:46:09.826Z,13.20
2019-05-05T09:48:40.420Z,13.30
2019-05-05T09:51:13.689Z,13.40
2019-05-05T09:53:44.942Z,13.50
2019-05-05T09:56:16.262Z,14.00
2019-05-05T09:58:46.700Z,14.50
2019-05-05T10:01:17.264Z,14.20
2019-05-05T10:03:48.108Z,14.00
2019-05-05T10:06:18.792Z,13.80
2019-05-05T10:08:49.222Z,14.00
2019-05-05T10:11:20.467Z,14.00
2019-05-05T10:13:51.202Z,13.70
2019-05-05T10:16:23.490Z,13.80
2019-05-05T10:18:56.732Z,13.90
2019-05-05T10:21:27.632Z,13.90
2019-05-05T10:24:00.447Z,13.80
2019-05-05T10:26:31.175Z,14.00
2019-05-05T10:29:01.728Z,13.80
2019-05-05T10:31:34.501Z,14.00
2019-05-05T10:34:07.237Z,13.40
2019-05-05T10:36:38.097Z,13.50
2019-05-05T10:39:14.829Z,13.40
2019-05-05T10:41:45.815Z,13.30
2019-05-05T10:44:16.756Z,13.50
2019-05-05T10:46:47.846Z,13.40
2019-05-05T10:49:19.145Z,13.70
2019-05-05T10:51:49.822Z,14.00
2019-05-05T10:54:20.608Z,14.10
2019-05-05T10:56:51.445Z,13.80
2019-05-05T10:59:23.802Z,14.00
2019-05-05T11:01:57.186Z,13.80
2019-05-05T11:04:28.151Z,14.00
2019-05-05T11:06:59.135Z,14.20
2019-05-05T11:09:30.218Z,14.10
2019-05-05T11:12:01.444Z,14.30
2019-05-05T11:14:33.847Z,14.10
2019-05-05T11:17:04.710Z,14.20
2019-05-05T11:19:35.588Z,14.20
2019-05-05T11:22:06.697Z,14.40
2019-05-05T11:24:38.361Z,14.20
2019-05-05T11:27:09.174Z,14.10
2019-05-05T11:29:58.819Z,14.10
2019-05-05T11:32:57.414Z,14.00
2019-05-05T11:35:44.405Z,14.10
2019-05-05T11:38:15.513Z,14.20
2019-05-05T11:40:47.983Z,14.40
2019-05-05T11:43:18.893Z,14.40
2019-05-05T11:45:49.852Z,14.40
2019-05-05T11:48:20.562Z,14.40
2019-05-05T11:50:53.801Z,14.40
2019-05-05T11:53:27.305Z,14.10
2019-05-05T11:55:58.169Z,14.20
2019-05-05T11:58:29.192Z,14.40
2019-05-05T12:00:59.822Z,14.20
2019-05-05T12:03:30.676Z,14.30
2019-05-05T12:06:01.344Z,14.50
2019-05-05T12:08:34.306Z,14.50
2019-05-05T12:11:06.060Z,14.70
2019-05-05T12:13:36.889Z,14.60
2019-05-05T12:16:09.576Z,14.40
2019-05-05T12:18:40.513Z,14.40
2019-05-05T12:21:13.861Z,14.50
2019-05-05T12:23:44.571Z,14.40
2019-05-05T12:26:29.619Z,14.40
2019-05-05T12:29:03.326Z,14.50
2019-05-05T12:31:34.902Z,14.30
2019-05-05T12:34:06.177Z,14.40
2019-05-05T12:36:37.000Z,14.60
2019-05-05T12:39:14.197Z,14.30
2019-05-05T12:41:45.336Z,14.30
2019-05-05T12:44:23.629Z,14.50
2019-05-05T12:47:14.404Z,14.70
2019-05-05T12:49:45.361Z,15.00
2019-05-05T12:52:16.381Z,14.90
2019-05-05T12:54:49.288Z,14.80
2019-05-05T12:57:20.296Z,14.80
2019-05-05T12:59:51.246Z,14.70
2019-05-05T13:02:23.547Z,14.50
2019-05-05T13:04:54.117Z,14.70
2019-05-05T13:07:24.972Z,14.80
2019-05-05T13:09:55.687Z,14.90
2019-05-05T13:12:26.236Z,14.70
2019-05-05T13:14:57.193Z,14.80
2019-05-05T13:17:27.909Z,14.80
2019-05-05T13:20:07.972Z,14.80
2019-05-05T13:22:48.946Z,14.90
2019-05-05T13:25:34.175Z,14.90
2019-05-05T13:28:06.741Z,14.90
2019-05-05T13:30:37.683Z,15.10
2019-05-05T13:33:08.537Z,15.20
2019-05-05T13:35:39.235Z,15.00
2019-05-05T13:38:09.952Z,14.80
2019-05-05T13:40:40.903Z,14.70
2019-05-05T13:43:11.622Z,14.50
2019-05-05T13:46:17.596Z,14.60
2019-05-05T13:48:48.246Z,14.20
2019-05-05T13:51:19.415Z,14.10
2019-05-05T13:53:51.374Z,14.30
2019-05-05T13:56:24.579Z,14.50
2019-05-05T13:58:55.800Z,14.70
2019-05-05T14:01:27.326Z,14.70
2019-05-05T14:03:58.706Z,14.40
2019-05-05T14:06:29.371Z,14.50
2019-05-05T14:09:01.428Z,14.40
2019-05-05T14:11:33.942Z,14.10
2019-05-05T14:14:05.558Z,14.00
2019-05-05T14:16:37.345Z,14.00
2019-05-05T14:19:08.651Z,14.10
2019-05-05T14:21:39.625Z,14.00
2019-05-05T14:24:27.871Z,13.80
2019-05-05T14:26:58.984Z,13.50
2019-05-05T14:29:44.665Z,13.40
2019-05-05T14:32:19.118Z,13.20
2019-05-05T14:34:58.743Z,13.00
2019-05-05T14:37:41.546Z,13.00
2019-05-05T14:40:13.281Z,12.80
2019-05-05T14:42:44.620Z,12.90
2019-05-05T14:45:15.949Z,12.80
2019-05-05T14:47:46.786Z,12.90
2019-05-05T14:50:18.094Z,13.00
2019-05-05T14:52:49.616Z,12.90
2019-05-05T14:55:25.450Z,12.80
2019-05-05T14:57:56.222Z,12.80
2019-05-05T15:00:30.381Z,12.80
2019-05-05T15:03:03.651Z,12.80
2019-05-05T15:05:44.266Z,12.90
2019-05-05T15:08:31.001Z,13.00
2019-05-05T15:11:15.177Z,12.90
2019-05-05T15:13:49.282Z,12.80
2019-05-05T15:16:20.626Z,13.00
2019-05-05T15:18:52.015Z,12.80
2019-05-05T15:21:23.637Z,13.10
2019-05-05T15:23:58.969Z,13.00
2019-05-05T15:26:29.997Z,13.20
2019-05-05T15:29:01.745Z,13.30
2019-05-05T15:31:34.206Z,13.30
2019-05-05T15:34:05.163Z,13.40
2019-05-05T15:36:36.187Z,13.40
2019-05-05T15:39:08.820Z,13.40
2019-05-05T15:41:41.901Z,13.50
2019-05-05T15:44:13.664Z,13.50
2019-05-05T15:46:44.743Z,13.60
2019-05-05T15:49:15.890Z,13.80
2019-05-05T15:51:46.714Z,13.70
2019-05-05T15:54:17.752Z,13.70
2019-05-05T15:56:48.778Z,13.70
2019-05-05T15:59:20.967Z,13.70
2019-05-05T16:01:54.957Z,13.80
2019-05-05T16:04:26.466Z,13.80
2019-05-05T16:07:00.588Z,13.80
2019-05-05T16:09:31.426Z,13.90
2019-05-05T16:12:03.771Z,13.90
2019-05-05T16:14:37.240Z,13.90
2019-05-05T16:17:25.528Z,13.90
2019-05-05T16:20:04.419Z,13.80
2019-05-05T16:22:54.214Z,13.80
2019-05-05T16:25:25.892Z,13.90
2019-05-05T16:27:57.316Z,13.70
2019-05-05T16:30:28.957Z,13.60
2019-05-05T16:33:00.445Z,13.70
2019-05-05T16:35:34.162Z,13.60
2019-05-05T16:38:06.544Z,13.60
2019-05-05T16:40:37.410Z,13.80
2019-05-05T16:43:08.342Z,13.80
2019-05-05T16:45:39.847Z,13.70
2019-05-05T16:48:10.771Z,13.60
2019-05-05T16:50:43.916Z,13.60
2019-05-05T16:53:34.281Z,13.60
2019-05-05T16:56:06.373Z,13.60
2019-05-05T16:58:38.189Z,13.50
2019-05-05T17:01:14.347Z,13.40
2019-05-05T17:03:46.066Z,13.40
2019-05-05T17:06:18.322Z,13.40
2019-05-05T17:08:49.343Z,13.20
2019-05-05T17:11:20.182Z,13.20
2019-05-05T17:13:56.496Z,13.10
2019-05-05T17:16:50.984Z,13.00
2019-05-05T17:19:28.506Z,13.10
2019-05-05T17:22:27.020Z,13.00
2019-05-05T17:24:59.354Z,13.10
2019-05-05T17:27:30.986Z,12.80
2019-05-05T17:30:04.477Z,12.80
2019-05-05T17:32:35.823Z,12.80
2019-05-05T17:35:07.304Z,12.90
2019-05-05T17:37:38.722Z,12.80
2019-05-05T17:40:18.700Z,12.70
2019-05-05T17:43:24.370Z,12.70
2019-05-05T17:46:19.265Z,12.60
2019-05-05T17:49:07.957Z,12.70
2019-05-05T17:51:46.360Z,12.50
2019-05-05T17:54:39.129Z,12.40
2019-05-05T17:57:10.665Z,12.40
2019-05-05T17:59:44.964Z,12.40
2019-05-05T18:02:16.468Z,12.40
2019-05-05T18:04:47.752Z,12.40
2019-05-05T18:07:35.801Z,12.30
2019-05-05T18:10:15.917Z,12.20
2019-05-05T18:13:12.039Z,12.10
2019-05-05T18:16:04.435Z,12.10
2019-05-05T18:18:37.159Z,12.00
2019-05-05T18:21:07.997Z,11.90
2019-05-05T18:23:39.750Z,11.90
2019-05-05T18:26:10.685Z,11.90
2019-05-05T18:28:44.466Z,11.70
2019-05-05T18:31:16.002Z,11.80
2019-05-05T18:33:47.259Z,11.80
2019-05-05T18:36:18.217Z,11.80
2019-05-05T18:38:49.015Z,11.70
2019-05-05T18:41:34.426Z,11.70
2019-05-05T18:44:19.333Z,11.70
2019-05-05T18:47:11.762Z,11.60
2019-05-05T18:49:41.413Z,11.60
2019-05-05T18:52:13.795Z,11.60
2019-05-05T18:54:44.151Z,11.50
2019-05-05T18:57:16.120Z,11.50
2019-05-05T18:59:46.442Z,11.50
2019-05-05T19:02:27.538Z,11.50
2019-05-05T19:05:14.145Z,11.40
2019-05-05T19:07:55.819Z,11.40
2019-05-05T19:10:24.327Z,11.40
2019-05-05T19:12:55.017Z,11.40
2019-05-05T19:15:25.486Z,11.40
2019-05-05T19:17:55.855Z,11.30
2019-05-05T19:20:45.024Z,11.30
2019-05-05T19:23:16.761Z,11.20
2019-05-05T19:25:47.120Z,11.20
2019-05-05T19:28:17.922Z,11.10
2019-05-05T19:30:48.310Z,11.10
2019-05-05T19:33:18.696Z,11.10
2019-05-05T19:35:49.136Z,11.00
2019-05-05T19:38:19.747Z,10.90
2019-05-05T19:40:50.300Z,11.00
2019-05-05T19:43:20.716Z,11.00
2019-05-05T19:45:51.204Z,10.90
2019-05-05T19:48:24.351Z,10.90
2019-05-05T19:51:14.140Z,10.90
2019-05-05T19:53:44.901Z,10.80
2019-05-05T19:56:15.854Z,10.80
2019-05-05T19:58:58.334Z,10.80
2019-05-05T20:01:32.148Z,10.60
2019-05-05T20:03:51.420Z,10.50
2019-05-05T20:06:23.709Z,10.50
2019-05-05T20:08:54.363Z,10.40
2019-05-05T20:11:24.821Z,10.40
2019-05-05T20:14:06.678Z,10.40
2019-05-05T20:16:38.474Z,10.40
2019-05-05T20:19:09.018Z,10.30
2019-05-05T20:21:39.566Z,10.30
2019-05-05T20:24:09.984Z,10.30
2019-05-05T20:26:40.483Z,10.30
2019-05-05T20:29:14.390Z,10.30
2019-05-05T20:31:43.215Z,10.30
2019-05-05T20:34:31.369Z,10.30
2019-05-05T20:37:15.664Z,10.30
2019-05-05T20:39:46.084Z,10.20
2019-05-05T20:42:16.569Z,10.10
2019-05-05T20:44:46.988Z,9.90
2019-05-05T20:47:17.419Z,9.90
2019-05-05T20:49:47.809Z,9.90
2019-05-05T20:52:18.220Z,9.80
2019-05-05T20:54:48.639Z,9.70
2019-05-05T20:57:19.225Z,9.60
2019-05-05T20:59:49.789Z,9.40
2019-05-05T21:02:20.213Z,9.30
2019-05-05T21:04:50.763Z,9.30
2019-05-05T21:07:25.843Z,9.20
2019-05-05T21:09:53.349Z,9.20
2019-05-05T21:12:24.612Z,9.20
2019-05-05T21:14:57.654Z,9.20
2019-05-05T21:17:28.259Z,9.20
2019-05-05T21:19:59.002Z,9.10
2019-05-05T21:22:39.228Z,9.00
2019-05-05T21:25:24.470Z,8.90
2019-05-05T21:27:54.830Z,8.90
2019-05-05T21:30:25.320Z,8.90
2019-05-05T21:32:55.756Z,8.80
2019-05-05T21:35:27.664Z,8.70
2019-05-05T21:37:58.137Z,8.70
2019-05-05T21:40:28.877Z,8.60
2019-05-05T21:42:59.550Z,8.60
2019-05-05T21:45:34.710Z,8.60
2019-05-05T21:48:05.478Z,8.60
2019-05-05T21:50:40.756Z,8.60
2019-05-05T21:53:26.644Z,8.70
2019-05-05T21:56:09.841Z,8.50
2019-05-05T21:58:43.949Z,8.50
2019-05-05T22:01:17.316Z,8.40
2019-05-05T22:03:50.427Z,8.40
2019-05-05T22:06:21.513Z,8.30
2019-05-05T22:08:53.685Z,8.30
2019-05-05T22:11:24.407Z,8.30
2019-05-05T22:13:56.693Z,8.30
2019-05-05T22:16:28.679Z,8.30
2019-05-05T22:18:59.363Z,8.20
2019-05-05T22:21:37.569Z,8.10
2019-05-05T22:24:23.685Z,8.10
2019-05-05T22:26:54.382Z,8.10
2019-05-05T22:29:25.418Z,8.00
2019-05-05T22:31:56.058Z,8.00
2019-05-05T22:34:26.670Z,8.00
2019-05-05T22:36:57.579Z,8.00
2019-05-05T22:39:29.156Z,8.00
2019-05-05T22:41:59.749Z,8.00
2019-05-05T22:44:30.290Z,7.90
2019-05-05T22:47:00.911Z,7.90
2019-05-05T22:49:31.358Z,7.90
2019-05-05T22:52:04.328Z,7.80
2019-05-05T22:54:34.919Z,7.70
2019-05-05T22:57:05.878Z,7.80
2019-05-05T22:59:36.505Z,7.70
2019-05-05T23:02:07.307Z,7.60
2019-05-05T23:04:45.166Z,7.60
2019-05-05T23:07:25.900Z,7.50
2019-05-05T23:09:56.849Z,7.40
2019-05-05T23:12:27.349Z,7.40
2019-05-05T23:14:58.229Z,7.30
2019-05-05T23:17:46.669Z,7.30
2019-05-05T23:21:03.669Z,7.20
2019-05-05T23:23:44.183Z,7.20
2019-05-05T23:26:16.565Z,7.10
2019-05-05T23:28:47.177Z,7.10
2019-05-05T23:31:17.607Z,7.00
2019-05-05T23:33:49.023Z,7.00
2019-05-05T23:36:19.425Z,7.00
2019-05-05T23:38:51.618Z,6.90
2019-05-05T23:41:23.877Z,6.90
2019-05-05T23:43:54.619Z,6.90
2019-05-05T23:46:25.219Z,6.90
2019-05-05T23:48:57.318Z,6.90
2019-05-05T23:51:27.769Z,6.90
2019-05-05T23:53:58.852Z,6.90
2019-05-05T23:56:29.708Z,7.00
2019-05-05T23:59:00.444Z,7.00
